Time;durP1;ratioP1;P1;durP2;ratioP2;P2;SDS_P1;SDS_P2;PMS_P1;PMS_P2;Temp;Humidity;BMP_temperature;BMP_pressure;BME280_temperature;BME280_humidity;BME280_pressure;Samples;Min_cycle;Max_cycle;Signal;HPM_P1;HPM_P2
2021/01/31 00:02:21;;;;;;;14.03;7.07;;;2.30;80.20;;;;;;5066955;28;20016;-86
2021/01/31 00:04:47;;;;;;;12.77;6.93;;;2.30;80.10;;;;;;5085809;28;20048;-86
2021/01/31 00:07:15;;;;;;;11.07;6.50;;;2.30;79.90;;;;;;5085786;28;20025;-86
2021/01/31 00:09:41;;;;;;;11.53;6.47;;;2.30;79.90;;;;;;5067370;28;20052;-86
2021/01/31 00:12:07;;;;;;;11.70;6.70;;;2.30;80.00;;;;;;5086400;28;20035;-84
2021/01/31 00:14:33;;;;;;;12.17;6.80;;;2.30;80.10;;;;;;5086450;28;20366;-87
2021/01/31 00:16:59;;;;;;;11.07;6.80;;;2.30;80.10;;;;;;5086705;28;20047;-85
2021/01/31 00:19:24;;;;;;;10.50;6.20;;;2.30;80.00;;;;;;5068277;28;20062;-86
2021/01/31 00:21:56;;;;;;;9.47;6.50;;;2.30;80.10;;;;;;5068667;28;20017;-86
2021/01/31 00:24:21;;;;;;;11.80;6.73;;;2.30;80.10;;;;;;5066400;28;20544;-86
2021/01/31 00:26:47;;;;;;;10.10;6.40;;;2.20;80.40;;;;;;5061950;28;20020;-85
2021/01/31 00:29:12;;;;;;;11.23;6.87;;;2.30;80.30;;;;;;5060816;28;20123;-85
2021/01/31 00:31:38;;;;;;;11.93;6.17;;;2.30;80.40;;;;;;5079429;28;20031;-85
2021/01/31 00:34:03;;;;;;;11.57;6.90;;;2.30;80.40;;;;;;5079929;28;20082;-87
2021/01/31 00:36:29;;;;;;;10.27;6.40;;;2.20;80.30;;;;;;5061936;28;20031;-84
2021/01/31 00:38:55;;;;;;;10.10;6.43;;;2.20;80.40;;;;;;5079229;28;20052;-85
2021/01/31 00:41:20;;;;;;;13.13;6.73;;;2.20;80.40;;;;;;5062204;28;20093;-85
2021/01/31 00:43:46;;;;;;;10.77;6.67;;;2.20;80.70;;;;;;5061981;28;20025;-86
2021/01/31 00:46:11;;;;;;;12.00;6.80;;;2.20;80.80;;;;;;5080185;28;20035;-84
2021/01/31 00:48:37;;;;;;;12.40;7.23;;;2.20;80.80;;;;;;5062456;28;20100;-84
2021/01/31 00:51:03;;;;;;;12.23;7.00;;;2.20;80.70;;;;;;5060565;28;20050;-84
2021/01/31 00:53:28;;;;;;;11.90;6.63;;;2.10;80.70;;;;;;5061885;28;20127;-84
2021/01/31 00:55:54;;;;;;;11.80;6.60;;;2.10;80.80;;;;;;5079879;28;20036;-85
2021/01/31 00:58:19;;;;;;;12.17;7.00;;;2.10;80.80;;;;;;5060714;28;20060;-84
2021/01/31 01:00:45;;;;;;;10.80;7.07;;;2.10;80.80;;;;;;5093475;28;20077;-85
2021/01/31 01:03:11;;;;;;;10.60;6.60;;;2.10;80.80;;;;;;5060830;28;20362;-85
2021/01/31 01:05:36;;;;;;;11.33;7.00;;;2.10;81.00;;;;;;5076975;28;20021;-87
2021/01/31 01:08:02;;;;;;;10.63;6.63;;;2.10;80.90;;;;;;5078547;28;20054;-84
2021/01/31 01:10:32;;;;;;;11.47;7.20;;;2.00;81.00;;;;;;5059982;28;20110;-84
2021/01/31 01:12:58;;;;;;;11.55;7.13;;;2.00;81.20;;;;;;5079085;28;20029;-84
2021/01/31 01:15:26;;;;;;;12.00;7.03;;;2.00;81.10;;;;;;5078721;28;20078;-84
2021/01/31 01:17:53;;;;;;;11.03;6.70;;;2.00;81.40;;;;;;5079184;28;20016;-84
2021/01/31 01:20:18;;;;;;;11.90;7.23;;;2.00;81.00;;;;;;5078336;28;20108;-84
2021/01/31 01:22:44;;;;;;;10.43;6.20;;;2.00;81.20;;;;;;5060978;28;20333;-84
2021/01/31 01:25:12;;;;;;;10.73;6.50;;;2.00;81.10;;;;;;5078645;28;20020;-84
2021/01/31 01:27:38;;;;;;;11.17;6.80;;;1.90;81.00;;;;;;5060434;28;20500;-84
2021/01/31 01:30:11;;;;;;;11.17;6.23;;;2.00;81.30;;;;;;5078486;28;20066;-84
2021/01/31 01:32:37;;;;;;;11.93;6.87;;;1.90;81.10;;;;;;5078115;28;20025;-84
2021/01/31 01:35:05;;;;;;;11.33;6.50;;;1.90;81.30;;;;;;5060349;28;20017;-85
2021/01/31 01:37:31;;;;;;;11.03;6.53;;;1.80;81.60;;;;;;5062367;28;20442;-85
2021/01/31 01:39:57;;;;;;;10.70;6.20;;;1.90;81.30;;;;;;5060623;28;20028;-84
2021/01/31 01:42:22;;;;;;;11.77;6.40;;;1.90;81.20;;;;;;5090526;28;20012;-86
2021/01/31 01:44:48;;;;;;;10.80;6.13;;;1.90;81.20;;;;;;5077013;28;20025;-88
2021/01/31 01:47:23;;;;;;;10.77;6.50;;;1.90;80.90;;;;;;5069826;28;20051;-85
2021/01/31 01:49:54;;;;;;;10.77;6.33;;;1.80;81.10;;;;;;5058713;28;20031;-84
2021/01/31 01:52:32;;;;;;;11.63;6.87;;;1.80;81.20;;;;;;5077463;28;20052;-84
2021/01/31 01:55:01;;;;;;;10.60;6.83;;;1.80;81.40;;;;;;5059963;28;20055;-86
2021/01/31 01:57:33;;;;;;;10.60;6.07;;;1.80;81.30;;;;;;5058728;28;20132;-84
2021/01/31 01:59:59;;;;;;;10.23;5.93;;;1.80;81.00;;;;;;5077607;28;20117;-84
2021/01/31 02:02:35;;;;;;;10.93;6.60;;;1.80;81.50;;;;;;5059239;28;20081;-84
2021/01/31 02:05:04;;;;;;;11.60;6.47;;;1.80;81.30;;;;;;5077957;28;20020;-84
2021/01/31 02:07:30;;;;;;;;;;;1.80;81.10;;;;;;5079214;28;20031;-85
2021/01/31 02:09:56;;;;;;;10.10;5.87;;;1.80;81.10;;;;;;5077559;28;19912;-84
2021/01/31 02:12:27;;;;;;;11.53;6.33;;;1.80;81.10;;;;;;5081702;28;20040;-84
2021/01/31 02:14:55;;;;;;;10.57;6.23;;;1.80;81.40;;;;;;5062876;28;20024;-84
2021/01/31 02:17:40;;;;;;;11.53;6.60;;;1.80;81.20;;;;;;5077485;28;20030;-86
2021/01/31 02:20:34;;;;;;;11.47;6.50;;;1.80;81.10;;;;;;5099216;28;20029;-88
2021/01/31 02:23:43;;;;;;;11.43;6.40;;;1.70;80.90;;;;;;5066896;28;20016;-84
2021/01/31 02:26:20;;;;;;;11.02;6.28;;;1.70;81.40;;;;;;5061990;28;20020;-84
2021/01/31 02:29:04;;;;;;;11.47;6.43;;;1.70;82.30;;;;;;5063666;28;20032;-87
2021/01/31 02:31:39;;;;;;;11.57;6.87;;;1.70;81.30;;;;;;5062187;28;20480;-84
2021/01/31 02:34:23;;;;;;;14.43;6.90;;;1.60;81.70;;;;;;5062448;28;20078;-85
2021/01/31 02:36:52;;;;;;;11.47;6.23;;;1.60;81.30;;;;;;5080868;28;20043;-84
2021/01/31 02:39:25;;;;;;;12.73;6.40;;;1.60;81.50;;;;;;5061156;28;20036;-84
2021/01/31 02:42:02;;;;;;;10.27;5.90;;;1.60;81.50;;;;;;5080253;28;20036;-86
2021/01/31 02:44:29;;;;;;;9.87;6.37;;;1.60;81.50;;;;;;5080328;28;20028;-84
2021/01/31 02:46:58;;;;;;;12.40;6.77;;;1.50;81.80;;;;;;5062175;28;20058;-84
2021/01/31 02:49:38;;;;;;;11.50;6.30;;;1.50;81.80;;;;;;5061786;28;20035;-84
2021/01/31 02:52:07;;;;;;;11.33;6.67;;;1.60;81.30;;;;;;5062568;28;20082;-84
2021/01/31 02:54:54;;;;;;;11.00;6.53;;;1.60;81.50;;;;;;5062671;28;20381;-84
2021/01/31 02:57:56;;;;;;;11.07;6.40;;;1.60;81.40;;;;;;5080934;28;20103;-84
2021/01/31 03:00:26;;;;;;;11.90;6.43;;;1.50;82.00;;;;;;5048259;28;20043;-84
2021/01/31 03:03:07;;;;;;;10.60;6.43;;;1.50;81.80;;;;;;5062483;28;20512;-84
2021/01/31 03:05:39;;;;;;;10.60;6.10;;;1.50;81.50;;;;;;5062213;28;20016;-84
2021/01/31 03:08:23;;;;;;;10.63;6.03;;;1.50;81.80;;;;;;5080151;28;20024;-85
2021/01/31 03:11:26;;;;;;;10.93;6.40;;;1.40;82.20;;;;;;5062927;28;20029;-84
2021/01/31 03:14:06;;;;;;;13.03;6.63;;;1.40;82.00;;;;;;5049386;28;20041;-85
2021/01/31 03:16:38;;;;;;;11.50;6.63;;;1.40;81.70;;;;;;5062894;28;20024;-86
2021/01/31 03:19:31;;;;;;;10.20;6.03;;;1.40;82.10;;;;;;5061800;28;20036;-84
2021/01/31 03:22:01;;;;;;;11.13;6.30;;;1.40;81.70;;;;;;5062034;28;20429;-83
2021/01/31 03:24:32;;;;;;;11.77;6.50;;;1.40;82.10;;;;;;5080979;28;20051;-84
2021/01/31 03:27:12;;;;;;;11.20;6.50;;;1.40;81.90;;;;;;5062064;28;20104;-85
2021/01/31 03:29:39;;;;;;;11.47;6.73;;;1.40;82.00;;;;;;5062423;28;20029;-85
2021/01/31 03:32:10;;;;;;;11.17;6.20;;;1.20;82.10;;;;;;5061994;28;20086;-84
2021/01/31 03:34:58;;;;;;;11.23;6.03;;;1.30;82.50;;;;;;5080266;28;20035;-84
2021/01/31 03:37:33;;;;;;;11.10;6.27;;;1.20;82.80;;;;;;5061837;28;20046;-84
2021/01/31 03:40:01;;;;;;;11.13;6.47;;;1.20;83.00;;;;;;5062566;28;20443;-84
2021/01/31 03:42:27;;;;;;;11.07;6.23;;;1.20;82.40;;;;;;5079793;28;20036;-84
2021/01/31 03:44:56;;;;;;;10.57;6.20;;;1.30;81.90;;;;;;5079647;28;20090;-84
2021/01/31 03:47:32;;;;;;;10.23;6.10;;;1.20;82.00;;;;;;5059815;28;20024;-85
2021/01/31 03:49:59;;;;;;;11.03;6.33;;;1.20;82.20;;;;;;5059701;28;20032;-84
2021/01/31 03:52:26;;;;;;;13.00;6.63;;;1.20;82.20;;;;;;5079328;28;20110;-84
2021/01/31 03:54:52;;;;;;;11.47;6.60;;;1.20;82.20;;;;;;5079110;28;20028;-84
2021/01/31 03:57:24;;;;;;;11.83;6.70;;;1.20;82.40;;;;;;5078648;28;20389;-84
2021/01/31 04:00:00;;;;;;;10.50;6.33;;;1.10;82.80;;;;;;5078818;28;20052;-84
2021/01/31 04:02:32;;;;;;;9.87;6.13;;;1.10;82.40;;;;;;5079303;28;20021;-84
2021/01/31 04:05:00;;;;;;;10.03;5.93;;;1.10;82.40;;;;;;5060536;28;20051;-84
2021/01/31 04:07:29;;;;;;;9.63;5.60;;;1.10;81.90;;;;;;5077544;28;20539;-84
2021/01/31 04:09:58;;;;;;;;;;;1.10;82.10;;;;;;5078199;28;20024;-85
2021/01/31 04:12:26;;;;;;;10.87;6.30;;;1.10;81.80;;;;;;5078178;28;19904;-84
2021/01/31 04:15:05;;;;;;;10.40;6.00;;;1.10;82.60;;;;;;5078813;28;20020;-84
2021/01/31 04:17:30;;;;;;;9.57;6.45;;;1.10;82.40;;;;;;5059820;28;20036;-84
2021/01/31 04:19:56;;;;;;;9.77;6.30;;;1.00;82.70;;;;;;5059646;28;20339;-84
2021/01/31 04:22:22;;;;;;;10.97;6.33;;;1.00;83.00;;;;;;5059905;28;20035;-84
2021/01/31 04:24:47;;;;;;;13.10;6.30;;;0.90;82.80;;;;;;5078679;28;20358;-84
2021/01/31 04:27:13;;;;;;;11.33;6.70;;;0.90;83.10;;;;;;5059953;28;20046;-84
2021/01/31 04:29:39;;;;;;;11.33;5.97;;;1.00;82.30;;;;;;5077638;28;20458;-84
2021/01/31 04:32:05;;;;;;;12.30;6.50;;;1.00;82.50;;;;;;5077267;28;20024;-83
2021/01/31 04:34:31;;;;;;;10.33;5.83;;;1.00;82.60;;;;;;5059880;28;20060;-84
2021/01/31 04:36:56;;;;;;;11.60;6.03;;;0.90;82.70;;;;;;5077576;28;20078;-84
2021/01/31 04:39:23;;;;;;;11.17;6.30;;;0.90;82.90;;;;;;5077656;28;20079;-83
2021/01/31 04:41:49;;;;;;;11.70;6.47;;;0.80;83.30;;;;;;5077926;28;20362;-84
2021/01/31 04:44:19;;;;;;;12.10;6.57;;;0.80;83.50;;;;;;5059740;28;20020;-84
2021/01/31 04:46:49;;;;;;;12.37;6.63;;;0.80;83.40;;;;;;5060169;28;20358;-84
2021/01/31 04:49:28;;;;;;;10.20;6.10;;;0.70;83.20;;;;;;5077805;28;20374;-84
2021/01/31 04:51:59;;;;;;;12.20;6.30;;;0.80;83.40;;;;;;5078021;28;20033;-84
2021/01/31 04:54:30;;;;;;;11.90;6.57;;;0.80;83.50;;;;;;5077775;28;20118;-84
2021/01/31 04:57:29;;;;;;;11.90;6.53;;;0.70;83.50;;;;;;5077110;28;20508;-84
2021/01/31 04:59:56;;;;;;;12.82;6.70;;;0.80;83.40;;;;;;5076101;28;20032;-84
2021/01/31 05:02:44;;;;;;;12.43;6.33;;;0.80;83.40;;;;;;5059182;28;20067;-84
2021/01/31 05:05:35;;;;;;;10.57;6.20;;;0.80;83.30;;;;;;5058927;28;20027;-84
2021/01/31 05:08:05;;;;;;;11.73;6.47;;;0.80;83.40;;;;;;5059441;28;20025;-84
2021/01/31 05:10:30;;;;;;;11.90;6.73;;;0.80;83.70;;;;;;5076442;28;20111;-85
2021/01/31 05:13:27;;;;;;;13.03;6.67;;;0.80;82.80;;;;;;5077198;28;20059;-84
2021/01/31 05:15:56;;;;;;;11.63;6.57;;;0.90;82.60;;;;;;5076650;28;20028;-84
2021/01/31 05:18:22;;;;;;;11.20;6.45;;;0.80;82.30;;;;;;5058414;28;20070;-84
2021/01/31 05:20:53;;;;;;;10.37;6.00;;;0.80;82.50;;;;;;5057562;28;20335;-84
2021/01/31 05:23:19;;;;;;;12.53;7.20;;;0.80;82.60;;;;;;5076043;28;20107;-84
2021/01/31 05:25:46;;;;;;;12.30;6.80;;;0.60;83.30;;;;;;5061060;28;20052;-85
2021/01/31 05:28:12;;;;;;;12.23;7.07;;;0.60;84.10;;;;;;5081272;28;20051;-85
2021/01/31 05:30:42;;;;;;;13.30;7.63;;;0.60;83.90;;;;;;5078255;28;20032;-84
2021/01/31 05:33:19;;;;;;;12.93;6.50;;;0.60;83.90;;;;;;5076807;28;20066;-84
2021/01/31 05:35:47;;;;;;;10.63;6.43;;;0.70;83.40;;;;;;5076564;28;20308;-84
2021/01/31 05:38:32;;;;;;;10.40;6.60;;;0.70;83.40;;;;;;5058338;28;20146;-84
2021/01/31 05:40:57;;;;;;;13.77;7.20;;;0.70;83.50;;;;;;5057329;28;20115;-84
2021/01/31 05:43:25;;;;;;;13.90;7.23;;;0.70;83.60;;;;;;5058354;28;20066;-84
2021/01/31 05:45:51;;;;;;;12.83;7.20;;;0.70;83.30;;;;;;5076115;28;20025;-85
2021/01/31 05:48:24;;;;;;;12.73;7.30;;;0.70;83.30;;;;;;5058434;28;20081;-84
2021/01/31 05:50:52;;;;;;;12.33;7.50;;;0.70;83.30;;;;;;5057065;28;20059;-84
2021/01/31 05:53:36;;;;;;;13.50;6.97;;;0.70;83.10;;;;;;5075873;28;20477;-84
2021/01/31 05:56:22;;;;;;;12.93;7.10;;;0.70;83.40;;;;;;5058300;28;20028;-84
2021/01/31 05:58:49;;;;;;;13.37;7.23;;;0.60;83.30;;;;;;5057989;28;20029;-84
2021/01/31 06:01:15;;;;;;;14.40;7.60;;;0.70;83.30;;;;;;5057217;28;20086;-85
2021/01/31 06:03:42;;;;;;;13.07;7.23;;;0.60;83.50;;;;;;5057819;28;20509;-84
2021/01/31 06:06:23;;;;;;;14.63;7.83;;;0.60;84.40;;;;;;5058393;28;20024;-85
2021/01/31 06:08:52;;;;;;;14.17;7.77;;;0.60;83.50;;;;;;5076486;28;20058;-85
2021/01/31 06:11:25;;;;;;;11.87;6.93;;;0.70;83.10;;;;;;5076245;28;20087;-85
2021/01/31 06:14:06;;;;;;;12.43;6.57;;;0.60;83.30;;;;;;5076496;28;20277;-84
2021/01/31 06:16:33;;;;;;;12.30;6.97;;;0.50;83.50;;;;;;5075565;28;20025;-86
2021/01/31 06:19:35;;;;;;;14.30;7.40;;;0.60;83.60;;;;;;5076082;28;20024;-84
2021/01/31 06:22:02;;;;;;;14.63;7.20;;;0.50;83.80;;;;;;5076778;28;20166;-84
2021/01/31 06:24:33;;;;;;;12.07;7.03;;;0.50;83.70;;;;;;5058583;28;20061;-85
2021/01/31 06:27:00;;;;;;;12.67;7.53;;;0.50;83.80;;;;;;5076805;28;20477;-84
2021/01/31 06:29:47;;;;;;;12.47;7.27;;;0.40;84.00;;;;;;5058278;28;20028;-85
2021/01/31 06:32:29;;;;;;;14.87;7.70;;;0.40;84.10;;;;;;5077113;28;20032;-85
2021/01/31 06:34:58;;;;;;;14.27;7.13;;;0.40;84.30;;;;;;5076693;28;20485;-84
2021/01/31 06:37:45;;;;;;;14.88;7.28;;;0.40;84.10;;;;;;5059381;28;20047;-84
2021/01/31 06:40:37;;;;;;;13.80;7.60;;;0.30;83.70;;;;;;5076218;28;20481;-84
2021/01/31 06:43:36;;;;;;;14.47;7.03;;;0.40;84.20;;;;;;5058452;28;20025;-84
2021/01/31 06:46:37;;;;;;;;;;;0.40;84.30;;;;;;5077849;28;20052;-84
2021/01/31 06:49:21;;;;;;;12.80;7.30;;;0.40;83.60;;;;;;4958751;28;19906;-84
2021/01/31 06:52:07;;;;;;;13.43;7.43;;;0.50;83.50;;;;;;5052666;28;20055;-86
2021/01/31 06:54:53;;;;;;;15.90;7.50;;;0.40;83.80;;;;;;5060393;28;20132;-84
2021/01/31 06:57:41;;;;;;;14.87;8.17;;;0.40;83.70;;;;;;5061364;28;20027;-84
2021/01/31 07:00:37;;;;;;;14.57;7.27;;;0.30;84.00;;;;;;5064087;28;20034;-84
2021/01/31 07:03:22;;;;;;;14.97;7.63;;;0.40;83.90;;;;;;5062960;28;20112;-84
2021/01/31 07:05:57;;;;;;;14.10;7.97;;;0.30;84.00;;;;;;5081257;28;20053;-84
2021/01/31 07:08:47;;;;;;;14.60;7.90;;;0.30;84.20;;;;;;5062657;28;20508;-85
2021/01/31 07:11:25;;;;;;;14.53;7.50;;;0.20;84.00;;;;;;5064671;28;20507;-84
2021/01/31 07:14:10;;;;;;;16.90;7.77;;;0.20;84.30;;;;;;5082165;28;20381;-85
2021/01/31 07:16:44;;;;;;;14.43;7.50;;;0.20;84.30;;;;;;5063689;28;20027;-85
2021/01/31 07:19:26;;;;;;;14.10;7.93;;;0.30;84.00;;;;;;5082134;28;20024;-84
2021/01/31 07:21:55;;;;;;;14.70;7.73;;;0.10;84.30;;;;;;5064996;28;20035;-85
2021/01/31 07:24:34;;;;;;;14.70;8.00;;;0.20;84.40;;;;;;5062806;28;20444;-84
2021/01/31 07:27:37;;;;;;;14.73;7.70;;;0.10;84.60;;;;;;5080798;28;20025;-84
2021/01/31 07:30:31;;;;;;;13.93;7.50;;;0.20;84.50;;;;;;5059325;28;20025;-84
2021/01/31 07:33:19;;;;;;;13.73;7.73;;;0.20;84.00;;;;;;5084696;28;20025;-83
2021/01/31 07:36:16;;;;;;;12.67;6.93;;;0.20;84.20;;;;;;5063746;28;20569;-84
2021/01/31 07:38:47;;;;;;;14.37;7.47;;;0.10;84.40;;;;;;5046558;28;20041;-84
2021/01/31 07:41:15;;;;;;;16.27;8.20;;;0.10;84.80;;;;;;5080343;28;20024;-84
2021/01/31 07:43:42;;;;;;;13.63;7.87;;;0.10;84.90;;;;;;5063495;28;20548;-84
2021/01/31 07:46:16;;;;;;;15.50;7.97;;;0.20;84.80;;;;;;5062944;28;20021;-84
2021/01/31 07:48:45;;;;;;;13.63;7.87;;;0.20;84.70;;;;;;5062556;28;20143;-84
2021/01/31 07:51:13;;;;;;;15.35;8.60;;;0.10;84.60;;;;;;5061046;28;20039;-84
2021/01/31 07:53:43;;;;;;;15.33;8.10;;;0.10;84.70;;;;;;5062239;28;20123;-84
2021/01/31 07:56:27;;;;;;;15.90;7.60;;;0.10;84.70;;;;;;5062448;28;20074;-84
2021/01/31 07:59:18;;;;;;;13.43;7.63;;;0.00;84.80;;;;;;5080339;28;20035;-85
2021/01/31 08:01:49;;;;;;;14.47;7.53;;;0.10;84.70;;;;;;5054335;28;20028;-84
2021/01/31 08:04:17;;;;;;;14.90;7.77;;;0.00;85.10;;;;;;5061603;28;20066;-84
2021/01/31 08:06:46;;;;;;;14.37;8.07;;;0.00;85.40;;;;;;5062242;28;20032;-84
2021/01/31 08:09:24;;;;;;;14.07;7.60;;;0.00;85.80;;;;;;5061346;28;20032;-85
2021/01/31 08:11:49;;;;;;;15.37;7.60;;;0.00;85.20;;;;;;5077713;28;20060;-84
2021/01/31 08:14:53;;;;;;;15.57;8.23;;;0.10;85.40;;;;;;5060527;28;20055;-85
2021/01/31 08:17:39;;;;;;;14.67;7.83;;;0.00;85.70;;;;;;5061410;28;20043;-85
2021/01/31 08:20:17;;;;;;;15.73;8.70;;;0.10;86.00;;;;;;5061687;28;20031;-84
2021/01/31 08:22:44;;;;;;;15.90;8.53;;;0.10;85.50;;;;;;5062805;28;20077;-86
2021/01/31 08:25:12;;;;;;;15.90;8.10;;;0.20;85.10;;;;;;5082775;28;20033;-84
2021/01/31 08:27:38;;;;;;;16.70;7.70;;;0.20;85.00;;;;;;5065143;28;20089;-84
2021/01/31 08:30:35;;;;;;;14.23;7.63;;;0.20;84.50;;;;;;5081109;28;20088;-84
2021/01/31 08:33:27;;;;;;;16.70;8.13;;;0.30;84.60;;;;;;5082691;28;20131;-85
2021/01/31 08:36:00;;;;;;;16.23;8.07;;;0.30;84.60;;;;;;5061972;28;20115;-84
2021/01/31 08:38:28;;;;;;;16.67;8.40;;;0.30;84.50;;;;;;5062901;28;20020;-84
2021/01/31 08:41:02;;;;;;;15.40;8.20;;;0.30;84.20;;;;;;5079642;28;20017;-84
2021/01/31 08:43:34;;;;;;;15.77;8.60;;;0.30;84.40;;;;;;5062066;28;20021;-84
2021/01/31 08:46:27;;;;;;;17.37;8.93;;;0.30;84.20;;;;;;5080540;28;20024;-84
2021/01/31 08:49:01;;;;;;;13.77;7.77;;;0.40;84.20;;;;;;5079940;28;20055;-85
2021/01/31 08:51:38;;;;;;;14.20;8.23;;;0.40;84.00;;;;;;5061157;28;20041;-85
2021/01/31 08:54:20;;;;;;;15.73;8.13;;;0.50;84.20;;;;;;5062270;28;20027;-84
2021/01/31 08:56:48;;;;;;;15.07;8.33;;;0.50;84.20;;;;;;5080258;28;20105;-84
2021/01/31 08:59:36;;;;;;;16.40;8.77;;;0.60;83.60;;;;;;5060978;28;20032;-86
2021/01/31 09:02:11;;;;;;;16.47;8.47;;;0.60;83.50;;;;;;5080863;28;20518;-84
2021/01/31 09:04:39;;;;;;;15.20;8.50;;;0.70;83.10;;;;;;5063423;28;20059;-85
2021/01/31 09:07:05;;;;;;;15.20;9.27;;;0.70;82.90;;;;;;5064014;28;20466;-84
2021/01/31 09:09:35;;;;;;;16.60;8.53;;;0.80;82.20;;;;;;5062369;28;20048;-84
2021/01/31 09:12:04;;;;;;;;;;;0.80;82.20;;;;;;5056600;28;20032;-85
2021/01/31 09:14:38;;;;;;;16.30;8.43;;;0.80;82.80;;;;;;5054845;28;19911;-85
2021/01/31 09:17:23;;;;;;;17.90;8.30;;;0.90;82.80;;;;;;5054612;28;20032;-85
2021/01/31 09:19:48;;;;;;;15.30;8.17;;;0.90;82.20;;;;;;5053885;28;20024;-85
2021/01/31 09:22:21;;;;;;;14.97;8.70;;;0.90;82.00;;;;;;5054573;28;20024;-85
2021/01/31 09:24:58;;;;;;;17.10;8.13;;;1.00;82.30;;;;;;5054545;28;20021;-85
2021/01/31 09:27:26;;;;;;;16.20;8.17;;;1.00;81.90;;;;;;5054758;28;20021;-85
2021/01/31 09:29:59;;;;;;;15.77;8.63;;;1.10;81.70;;;;;;5054066;28;20025;-85
2021/01/31 09:32:36;;;;;;;15.57;8.17;;;1.10;81.70;;;;;;5072523;28;20481;-85
2021/01/31 09:35:07;;;;;;;14.77;8.23;;;1.20;81.10;;;;;;5072697;28;20547;-86
2021/01/31 09:37:33;;;;;;;15.30;8.63;;;1.20;80.50;;;;;;5073058;28;20046;-85
2021/01/31 09:40:01;;;;;;;15.43;7.80;;;1.20;80.50;;;;;;5053820;28;20122;-85
2021/01/31 09:42:29;;;;;;;15.37;8.20;;;1.20;81.00;;;;;;5054332;28;20078;-85
2021/01/31 09:45:05;;;;;;;14.50;8.10;;;1.20;81.10;;;;;;5054356;28;20026;-85
2021/01/31 09:47:31;;;;;;;16.60;8.70;;;1.20;80.70;;;;;;5054629;28;20023;-84
2021/01/31 09:50:02;;;;;;;17.00;8.37;;;1.30;81.00;;;;;;5072088;28;20033;-84
2021/01/31 09:52:28;;;;;;;16.33;8.20;;;1.30;80.60;;;;;;5059498;28;20491;-85
2021/01/31 09:54:54;;;;;;;14.47;8.20;;;1.30;80.40;;;;;;5076097;28;20025;-85
2021/01/31 09:57:26;;;;;;;15.63;8.27;;;1.30;80.10;;;;;;5075151;28;20413;-85
2021/01/31 10:00:06;;;;;;;16.90;8.60;;;1.40;81.00;;;;;;5073995;28;20028;-84
2021/01/31 10:02:34;;;;;;;15.77;8.67;;;1.40;80.70;;;;;;5056931;28;20428;-85
2021/01/31 10:05:03;;;;;;;15.07;8.57;;;1.40;80.60;;;;;;5056664;28;20016;-85
2021/01/31 10:07:39;;;;;;;15.35;8.30;;;1.40;80.50;;;;;;5074568;28;20024;-84
2021/01/31 10:10:39;;;;;;;15.97;8.27;;;1.40;80.30;;;;;;5056423;28;20401;-85
2021/01/31 10:13:34;;;;;;;14.53;8.03;;;1.50;81.00;;;;;;5054063;28;20021;-84
2021/01/31 10:16:18;;;;;;;16.80;8.50;;;1.50;79.80;;;;;;5069915;28;20115;-85
2021/01/31 10:18:44;;;;;;;16.17;8.50;;;1.60;80.30;;;;;;5072092;28;20056;-85
2021/01/31 10:21:27;;;;;;;16.03;8.47;;;1.60;80.20;;;;;;5071355;28;20102;-84
2021/01/31 10:24:22;;;;;;;17.67;8.60;;;1.70;80.10;;;;;;5071882;28;20448;-85
2021/01/31 10:26:48;;;;;;;15.10;8.83;;;1.70;79.40;;;;;;5052205;28;20044;-85
2021/01/31 10:29:31;;;;;;;13.43;7.93;;;1.70;79.30;;;;;;5071255;28;20036;-85
2021/01/31 10:32:22;;;;;;;13.83;7.47;;;1.80;78.20;;;;;;5073833;28;20032;-85
2021/01/31 10:34:48;;;;;;;14.37;7.63;;;1.80;78.60;;;;;;5075563;28;20074;-85
2021/01/31 10:37:17;;;;;;;14.07;7.73;;;1.90;78.80;;;;;;5075809;28;20029;-85
2021/01/31 10:39:44;;;;;;;15.02;7.25;;;2.00;78.80;;;;;;5056982;28;20059;-85
2021/01/31 10:42:09;;;;;;;13.50;7.73;;;2.00;78.40;;;;;;5075176;28;20020;-85
2021/01/31 10:44:36;;;;;;;12.30;6.97;;;2.00;78.30;;;;;;5075246;28;20093;-85
2021/01/31 10:47:01;;;;;;;13.27;7.73;;;2.00;78.00;;;;;;5057633;28;20055;-85
2021/01/31 10:49:27;;;;;;;14.53;7.93;;;2.10;78.50;;;;;;5074920;28;20032;-85
2021/01/31 10:51:53;;;;;;;12.43;7.23;;;2.10;77.90;;;;;;5057360;28;20385;-85
2021/01/31 10:54:20;;;;;;;12.77;6.90;;;2.10;78.00;;;;;;5057062;28;20025;-85
2021/01/31 10:56:46;;;;;;;13.90;7.30;;;2.20;77.90;;;;;;5075200;28;20024;-85
2021/01/31 10:59:12;;;;;;;12.10;7.23;;;2.20;78.20;;;;;;5056932;28;20025;-85
2021/01/31 11:01:42;;;;;;;14.47;7.33;;;2.20;77.20;;;;;;5057725;28;20020;-86
2021/01/31 11:04:08;;;;;;;12.33;6.93;;;2.20;77.60;;;;;;5057573;28;20025;-86
2021/01/31 11:06:33;;;;;;;11.90;6.93;;;2.30;77.20;;;;;;5058574;28;20024;-86
2021/01/31 11:08:59;;;;;;;15.70;6.70;;;2.30;76.90;;;;;;5057541;28;20020;-86
2021/01/31 11:11:24;;;;;;;14.90;7.77;;;2.30;76.30;;;;;;5058637;28;20036;-85
2021/01/31 11:13:50;;;;;;;12.97;7.00;;;2.40;76.80;;;;;;5059287;28;20021;-86
2021/01/31 11:16:17;;;;;;;12.67;7.10;;;2.40;76.60;;;;;;5059602;28;20469;-86
2021/01/31 11:18:43;;;;;;;11.10;6.40;;;2.40;76.30;;;;;;5059458;28;20437;-85
2021/01/31 11:21:34;;;;;;;11.53;6.50;;;2.40;76.30;;;;;;5076357;28;20028;-86
2021/01/31 11:24:12;;;;;;;11.90;6.60;;;2.50;76.40;;;;;;5055585;28;20048;-85
2021/01/31 11:27:23;;;;;;;12.80;6.65;;;2.50;76.60;;;;;;5039475;28;20417;-86
2021/01/31 11:30:05;;;;;;;14.53;7.20;;;2.50;76.60;;;;;;5072838;28;20032;-86
2021/01/31 11:32:52;;;;;;;10.27;6.00;;;2.50;75.60;;;;;;5074741;28;20028;-86
2021/01/31 11:35:22;;;;;;;10.95;6.50;;;2.50;76.30;;;;;;5075581;28;20044;-86
2021/01/31 11:37:48;;;;;;;11.95;6.93;;;2.60;76.60;;;;;;5056482;28;20024;-85
2021/01/31 11:40:14;;;;;;;11.43;6.33;;;2.60;76.50;;;;;;5056495;28;20357;-86
2021/01/31 11:42:40;;;;;;;11.03;6.33;;;2.60;76.50;;;;;;5056785;28;20460;-85
2021/01/31 11:45:07;;;;;;;12.03;6.77;;;2.70;76.40;;;;;;5075340;28;20021;-86
2021/01/31 11:47:34;;;;;;;12.13;7.10;;;2.60;76.30;;;;;;5074611;28;20534;-86
2021/01/31 11:50:00;;;;;;;11.80;6.70;;;2.60;76.10;;;;;;5056435;28;20067;-86
2021/01/31 11:52:26;;;;;;;11.77;6.83;;;2.60;76.20;;;;;;5075380;28;20024;-86
2021/01/31 11:54:52;;;;;;;12.13;7.17;;;2.70;76.20;;;;;;5056924;28;20498;-86
2021/01/31 11:57:18;;;;;;;10.83;6.53;;;2.70;75.60;;;;;;5074767;28;20101;-86
2021/01/31 11:59:44;;;;;;;11.37;7.27;;;2.70;75.50;;;;;;5056081;28;20082;-85
2021/01/31 12:02:09;;;;;;;13.17;7.07;;;2.70;75.60;;;;;;5056665;28;20028;-86
2021/01/31 12:04:36;;;;;;;12.17;6.23;;;2.70;75.30;;;;;;5056713;28;20025;-86
2021/01/31 12:07:02;;;;;;;11.77;7.00;;;2.70;75.80;;;;;;5056210;28;20037;-86
2021/01/31 12:09:27;;;;;;;12.30;6.87;;;2.70;75.60;;;;;;5074086;28;20025;-86
2021/01/31 12:11:53;;;;;;;11.93;6.77;;;2.80;76.00;;;;;;5057016;28;20028;-85
2021/01/31 12:14:18;;;;;;;13.00;6.60;;;2.70;75.60;;;;;;5056790;28;20028;-85
2021/01/31 12:16:44;;;;;;;12.43;6.73;;;2.80;76.30;;;;;;5074331;28;20029;-86
2021/01/31 12:19:10;;;;;;;12.70;7.13;;;2.80;75.80;;;;;;5073451;28;20465;-85
2021/01/31 12:21:35;;;;;;;12.27;7.00;;;2.80;75.90;;;;;;5055978;28;20028;-86
2021/01/31 12:24:01;;;;;;;11.53;6.23;;;2.80;74.90;;;;;;5056168;28;20031;-86
2021/01/31 12:26:28;;;;;;;12.73;7.10;;;2.80;75.10;;;;;;5056193;28;20397;-86
2021/01/31 12:28:53;;;;;;;10.67;6.70;;;2.80;75.30;;;;;;5054971;28;20035;-85
2021/01/31 12:31:26;;;;;;;12.60;7.00;;;2.80;74.90;;;;;;5073555;28;20033;-86
2021/01/31 12:34:11;;;;;;;12.43;7.50;;;2.80;74.70;;;;;;5056238;28;20117;-86
2021/01/31 12:36:39;;;;;;;11.37;6.53;;;2.80;74.50;;;;;;5055430;28;20036;-86
2021/01/31 12:39:05;;;;;;;14.87;7.47;;;2.80;74.00;;;;;;5059286;28;20534;-86
2021/01/31 12:41:31;;;;;;;9.73;6.07;;;2.90;74.80;;;;;;5075374;28;20051;-86
2021/01/31 12:43:56;;;;;;;11.53;6.63;;;2.90;74.10;;;;;;5057389;28;20025;-85
2021/01/31 12:46:22;;;;;;;12.10;6.60;;;2.80;74.20;;;;;;5058037;28;20102;-85
2021/01/31 12:48:48;;;;;;;12.97;6.43;;;2.90;75.00;;;;;;5056999;28;20024;-85
2021/01/31 12:51:13;;;;;;;11.63;6.70;;;2.90;74.50;;;;;;5076547;28;20103;-86
2021/01/31 12:53:39;;;;;;;12.40;6.97;;;2.90;74.40;;;;;;5057562;28;20028;-86
2021/01/31 12:56:04;;;;;;;11.50;6.60;;;2.90;74.00;;;;;;5057316;28;20085;-85
2021/01/31 12:58:30;;;;;;;12.27;6.83;;;3.00;73.50;;;;;;5057042;28;20078;-86
2021/01/31 13:00:57;;;;;;;13.37;7.67;;;3.00;73.80;;;;;;5074708;28;20051;-85
2021/01/31 13:03:23;;;;;;;13.17;7.03;;;3.00;75.10;;;;;;5057317;28;20444;-86
2021/01/31 13:05:48;;;;;;;13.00;6.60;;;2.90;74.70;;;;;;5057663;28;20025;-86
2021/01/31 13:08:14;;;;;;;13.60;7.20;;;3.00;74.30;;;;;;5074945;28;20421;-85
2021/01/31 13:10:40;;;;;;;12.27;7.47;;;3.00;73.90;;;;;;5074795;28;20047;-85
2021/01/31 13:13:06;;;;;;;12.13;6.40;;;3.00;73.80;;;;;;5074853;28;20056;-85
2021/01/31 13:15:31;;;;;;;13.33;7.63;;;3.00;73.70;;;;;;5056877;28;20028;-86
2021/01/31 13:17:58;;;;;;;12.03;6.70;;;3.10;72.80;;;;;;5074717;28;20072;-85